sensor_id;sensor_type;location;lat;lon;timestamp;P1;durP1;ratioP1;P2;durP2;ratioP2
11711;SDS011;5912;51.034;6.984;2022-09-09T00:01:02;1.60;;;0.90;;
11711;SDS011;5912;51.034;6.984;2022-09-09T00:03:53;2.17;;;1.30;;
11711;SDS011;5912;51.034;6.984;2022-09-09T00:06:23;3.22;;;1.67;;
11711;SDS011;5912;51.034;6.984;2022-09-09T00:11:45;1.55;;;1.13;;
11711;SDS011;5912;51.034;6.984;2022-09-09T00:17:47;2.85;;;1.05;;
11711;SDS011;5912;51.034;6.984;2022-09-09T00:20:28;2.78;;;0.90;;
11711;SDS011;5912;51.034;6.984;2022-09-09T00:28:35;2.70;;;0.82;;
11711;SDS011;5912;51.034;6.984;2022-09-09T00:31:11;2.05;;;1.00;;
11711;SDS011;5912;51.034;6.984;2022-09-09T00:33:38;3.22;;;0.98;;
11711;SDS011;5912;51.034;6.984;2022-09-09T00:36:09;3.15;;;0.90;;
11711;SDS011;5912;51.034;6.984;2022-09-09T00:38:41;1.33;;;0.60;;
11711;SDS011;5912;51.034;6.984;2022-09-09T00:41:26;1.27;;;0.80;;
11711;SDS011;5912;51.034;6.984;2022-09-09T00:50:06;2.55;;;1.05;;
11711;SDS011;5912;51.034;6.984;2022-09-09T00:52:45;3.85;;;1.10;;
11711;SDS011;5912;51.034;6.984;2022-09-09T00:57:57;2.15;;;1.00;;
11711;SDS011;5912;51.034;6.984;2022-09-09T01:00:27;2.35;;;0.82;;
11711;SDS011;5912;51.034;6.984;2022-09-09T01:09:14;1.02;;;0.77;;
11711;SDS011;5912;51.034;6.984;2022-09-09T01:14:43;2.15;;;0.90;;
11711;SDS011;5912;51.034;6.984;2022-09-09T01:17:17;2.17;;;0.80;;
11711;SDS011;5912;51.034;6.984;2022-09-09T01:23:04;2.53;;;0.98;;
11711;SDS011;5912;51.034;6.984;2022-09-09T01:28:39;0.95;;;0.82;;
11711;SDS011;5912;51.034;6.984;2022-09-09T01:31:06;2.58;;;0.93;;
11711;SDS011;5912;51.034;6.984;2022-09-09T01:33:36;1.02;;;0.60;;
11711;SDS011;5912;51.034;6.984;2022-09-09T01:36:06;1.75;;;0.68;;
11711;SDS011;5912;51.034;6.984;2022-09-09T01:38:35;1.85;;;0.77;;
11711;SDS011;5912;51.034;6.984;2022-09-09T01:41:01;1.00;;;0.77;;
11711;SDS011;5912;51.034;6.984;2022-09-09T01:43:27;1.83;;;0.68;;
11711;SDS011;5912;51.034;6.984;2022-09-09T01:45:54;2.15;;;0.80;;
11711;SDS011;5912;51.034;6.984;2022-09-09T01:48:23;1.08;;;0.70;;
11711;SDS011;5912;51.034;6.984;2022-09-09T01:53:59;2.15;;;0.90;;
11711;SDS011;5912;51.034;6.984;2022-09-09T02:04:52;2.55;;;1.10;;
11711;SDS011;5912;51.034;6.984;2022-09-09T02:07:35;2.22;;;0.98;;
11711;SDS011;5912;51.034;6.984;2022-09-09T02:10:12;2.33;;;0.77;;
11711;SDS011;5912;51.034;6.984;2022-09-09T02:12:48;1.92;;;0.88;;
11711;SDS011;5912;51.034;6.984;2022-09-09T02:15:29;2.60;;;1.30;;
11711;SDS011;5912;51.034;6.984;2022-09-09T02:18:12;3.65;;;1.25;;
11711;SDS011;5912;51.034;6.984;2022-09-09T02:20:42;2.25;;;1.20;;
11711;SDS011;5912;51.034;6.984;2022-09-09T02:23:16;3.10;;;1.10;;
11711;SDS011;5912;51.034;6.984;2022-09-09T02:25:42;1.73;;;0.77;;
11711;SDS011;5912;51.034;6.984;2022-09-09T02:28:09;3.05;;;1.17;;
11711;SDS011;5912;51.034;6.984;2022-09-09T02:30:38;4.00;;;1.10;;
11711;SDS011;5912;51.034;6.984;2022-09-09T02:33:07;2.55;;;1.30;;
11711;SDS011;5912;51.034;6.984;2022-09-09T02:35:37;2.70;;;1.35;;
11711;SDS011;5912;51.034;6.984;2022-09-09T02:38:06;2.30;;;0.95;;
11711;SDS011;5912;51.034;6.984;2022-09-09T02:40:35;3.72;;;1.00;;
11711;SDS011;5912;51.034;6.984;2022-09-09T02:43:00;1.83;;;1.05;;
11711;SDS011;5912;51.034;6.984;2022-09-09T02:45:28;3.35;;;1.48;;
11711;SDS011;5912;51.034;6.984;2022-09-09T02:50:52;3.38;;;0.90;;
11711;SDS011;5912;51.034;6.984;2022-09-09T02:53:16;1.50;;;0.80;;
11711;SDS011;5912;51.034;6.984;2022-09-09T02:55:56;1.48;;;0.85;;
11711;SDS011;5912;51.034;6.984;2022-09-09T02:58:27;4.50;;;1.15;;
11711;SDS011;5912;51.034;6.984;2022-09-09T03:00:52;2.33;;;1.27;;
11711;SDS011;5912;51.034;6.984;2022-09-09T03:03:18;3.05;;;1.23;;
11711;SDS011;5912;51.034;6.984;2022-09-09T03:05:44;5.75;;;1.55;;
11711;SDS011;5912;51.034;6.984;2022-09-09T03:08:11;4.45;;;1.50;;
11711;SDS011;5912;51.034;6.984;2022-09-09T03:10:38;2.45;;;1.20;;
11711;SDS011;5912;51.034;6.984;2022-09-09T03:13:04;5.88;;;1.00;;
11711;SDS011;5912;51.034;6.984;2022-09-09T03:15:30;4.40;;;1.15;;
11711;SDS011;5912;51.034;6.984;2022-09-09T03:17:57;4.00;;;1.65;;
11711;SDS011;5912;51.034;6.984;2022-09-09T03:20:24;3.63;;;1.33;;
11711;SDS011;5912;51.034;6.984;2022-09-09T03:22:50;4.55;;;1.60;;
11711;SDS011;5912;51.034;6.984;2022-09-09T03:25:16;2.28;;;1.23;;
11711;SDS011;5912;51.034;6.984;2022-09-09T03:27:41;4.82;;;1.30;;
11711;SDS011;5912;51.034;6.984;2022-09-09T03:30:06;2.83;;;1.20;;
11711;SDS011;5912;51.034;6.984;2022-09-09T03:32:32;5.85;;;1.55;;
11711;SDS011;5912;51.034;6.984;2022-09-09T03:34:58;4.93;;;1.40;;
11711;SDS011;5912;51.034;6.984;2022-09-09T03:37:23;2.70;;;1.10;;
11711;SDS011;5912;51.034;6.984;2022-09-09T03:39:48;2.25;;;1.00;;
11711;SDS011;5912;51.034;6.984;2022-09-09T03:42:14;3.53;;;1.08;;
11711;SDS011;5912;51.034;6.984;2022-09-09T03:44:43;4.13;;;1.60;;
11711;SDS011;5912;51.034;6.984;2022-09-09T03:47:12;2.78;;;1.05;;
11711;SDS011;5912;51.034;6.984;2022-09-09T03:49:38;3.42;;;1.30;;
11711;SDS011;5912;51.034;6.984;2022-09-09T03:52:03;3.28;;;1.25;;
11711;SDS011;5912;51.034;6.984;2022-09-09T03:54:29;3.58;;;1.40;;
11711;SDS011;5912;51.034;6.984;2022-09-09T03:56:54;1.98;;;1.20;;
11711;SDS011;5912;51.034;6.984;2022-09-09T03:59:20;3.00;;;1.42;;
11711;SDS011;5912;51.034;6.984;2022-09-09T04:01:46;3.03;;;1.23;;
11711;SDS011;5912;51.034;6.984;2022-09-09T04:04:12;3.53;;;1.42;;
11711;SDS011;5912;51.034;6.984;2022-09-09T04:09:52;8.38;;;1.52;;
11711;SDS011;5912;51.034;6.984;2022-09-09T04:12:18;3.58;;;1.02;;
11711;SDS011;5912;51.034;6.984;2022-09-09T04:14:43;2.65;;;1.20;;
11711;SDS011;5912;51.034;6.984;2022-09-09T04:17:08;3.85;;;1.00;;
11711;SDS011;5912;51.034;6.984;2022-09-09T04:19:33;3.47;;;1.67;;
11711;SDS011;5912;51.034;6.984;2022-09-09T04:21:59;3.85;;;1.45;;
11711;SDS011;5912;51.034;6.984;2022-09-09T04:24:24;5.05;;;1.15;;
11711;SDS011;5912;51.034;6.984;2022-09-09T04:26:51;2.60;;;1.20;;
11711;SDS011;5912;51.034;6.984;2022-09-09T04:29:17;1.70;;;0.90;;
11711;SDS011;5912;51.034;6.984;2022-09-09T04:31:42;4.80;;;1.10;;
11711;SDS011;5912;51.034;6.984;2022-09-09T04:34:10;2.75;;;0.90;;
11711;SDS011;5912;51.034;6.984;2022-09-09T04:36:36;3.20;;;1.10;;
11711;SDS011;5912;51.034;6.984;2022-09-09T04:39:01;2.35;;;1.20;;
11711;SDS011;5912;51.034;6.984;2022-09-09T04:41:27;1.85;;;0.98;;
11711;SDS011;5912;51.034;6.984;2022-09-09T04:43:52;2.63;;;0.90;;
11711;SDS011;5912;51.034;6.984;2022-09-09T04:46:18;2.83;;;0.82;;
11711;SDS011;5912;51.034;6.984;2022-09-09T04:48:44;3.20;;;1.38;;
11711;SDS011;5912;51.034;6.984;2022-09-09T04:51:11;3.67;;;1.20;;
11711;SDS011;5912;51.034;6.984;2022-09-09T04:53:38;2.38;;;1.02;;
11711;SDS011;5912;51.034;6.984;2022-09-09T04:59:26;5.38;;;1.58;;
11711;SDS011;5912;51.034;6.984;2022-09-09T05:01:51;2.40;;;1.13;;
11711;SDS011;5912;51.034;6.984;2022-09-09T05:04:18;3.95;;;1.23;;
11711;SDS011;5912;51.034;6.984;2022-09-09T05:06:44;2.10;;;0.82;;
11711;SDS011;5912;51.034;6.984;2022-09-09T05:09:10;2.78;;;0.90;;
11711;SDS011;5912;51.034;6.984;2022-09-09T05:11:35;4.28;;;1.70;;
11711;SDS011;5912;51.034;6.984;2022-09-09T05:14:01;2.92;;;1.45;;
11711;SDS011;5912;51.034;6.984;2022-09-09T05:16:27;2.30;;;1.00;;
11711;SDS011;5912;51.034;6.984;2022-09-09T05:18:52;2.47;;;0.88;;
11711;SDS011;5912;51.034;6.984;2022-09-09T05:21:19;2.80;;;1.25;;
11711;SDS011;5912;51.034;6.984;2022-09-09T05:23:46;3.20;;;1.48;;
11711;SDS011;5912;51.034;6.984;2022-09-09T05:26:13;4.53;;;1.33;;
11711;SDS011;5912;51.034;6.984;2022-09-09T05:28:40;3.45;;;1.17;;
11711;SDS011;5912;51.034;6.984;2022-09-09T05:31:06;1.83;;;0.93;;
11711;SDS011;5912;51.034;6.984;2022-09-09T05:33:33;2.75;;;0.88;;
11711;SDS011;5912;51.034;6.984;2022-09-09T05:36:10;3.75;;;1.05;;
11711;SDS011;5912;51.034;6.984;2022-09-09T05:38:40;1.70;;;1.00;;
11711;SDS011;5912;51.034;6.984;2022-09-09T05:41:07;2.08;;;1.10;;
11711;SDS011;5912;51.034;6.984;2022-09-09T05:43:34;2.85;;;1.20;;
11711;SDS011;5912;51.034;6.984;2022-09-09T05:48:34;2.30;;;1.17;;
11711;SDS011;5912;51.034;6.984;2022-09-09T05:51:15;4.05;;;1.10;;
11711;SDS011;5912;51.034;6.984;2022-09-09T05:56:51;4.97;;;1.20;;
11711;SDS011;5912;51.034;6.984;2022-09-09T05:59:17;4.63;;;1.30;;
11711;SDS011;5912;51.034;6.984;2022-09-09T06:01:43;1.98;;;1.00;;
11711;SDS011;5912;51.034;6.984;2022-09-09T06:04:10;3.70;;;1.02;;
11711;SDS011;5912;51.034;6.984;2022-09-09T06:06:36;3.80;;;1.17;;
11711;SDS011;5912;51.034;6.984;2022-09-09T06:09:02;2.33;;;1.65;;
11711;SDS011;5912;51.034;6.984;2022-09-09T06:11:31;4.07;;;1.40;;
11711;SDS011;5912;51.034;6.984;2022-09-09T06:13:57;4.10;;;1.40;;
11711;SDS011;5912;51.034;6.984;2022-09-09T06:16:24;1.67;;;1.20;;
11711;SDS011;5912;51.034;6.984;2022-09-09T06:18:51;2.75;;;1.30;;
11711;SDS011;5912;51.034;6.984;2022-09-09T06:21:29;4.13;;;1.20;;
11711;SDS011;5912;51.034;6.984;2022-09-09T06:23:56;2.08;;;1.40;;
11711;SDS011;5912;51.034;6.984;2022-09-09T06:26:22;1.90;;;1.10;;
11711;SDS011;5912;51.034;6.984;2022-09-09T06:29:08;3.88;;;1.48;;
11711;SDS011;5912;51.034;6.984;2022-09-09T06:31:35;1.60;;;1.00;;
11711;SDS011;5912;51.034;6.984;2022-09-09T06:34:02;2.13;;;1.30;;
11711;SDS011;5912;51.034;6.984;2022-09-09T06:36:33;1.77;;;0.95;;
11711;SDS011;5912;51.034;6.984;2022-09-09T06:39:02;4.00;;;1.05;;
11711;SDS011;5912;51.034;6.984;2022-09-09T06:41:28;6.45;;;1.58;;
11711;SDS011;5912;51.034;6.984;2022-09-09T06:43:55;4.15;;;1.20;;
11711;SDS011;5912;51.034;6.984;2022-09-09T06:46:27;2.90;;;1.20;;
11711;SDS011;5912;51.034;6.984;2022-09-09T06:48:55;4.28;;;1.30;;
11711;SDS011;5912;51.034;6.984;2022-09-09T06:51:22;3.75;;;1.13;;
11711;SDS011;5912;51.034;6.984;2022-09-09T06:53:52;4.10;;;1.15;;
11711;SDS011;5912;51.034;6.984;2022-09-09T06:56:23;2.75;;;1.10;;
11711;SDS011;5912;51.034;6.984;2022-09-09T06:58:54;4.80;;;1.25;;
11711;SDS011;5912;51.034;6.984;2022-09-09T07:01:22;3.03;;;1.23;;
11711;SDS011;5912;51.034;6.984;2022-09-09T07:03:49;3.13;;;1.17;;
11711;SDS011;5912;51.034;6.984;2022-09-09T07:06:18;5.25;;;1.35;;
11711;SDS011;5912;51.034;6.984;2022-09-09T07:08:58;4.50;;;1.20;;
11711;SDS011;5912;51.034;6.984;2022-09-09T07:11:26;2.05;;;1.20;;
11711;SDS011;5912;51.034;6.984;2022-09-09T07:13:54;3.83;;;1.50;;
11711;SDS011;5912;51.034;6.984;2022-09-09T07:16:20;4.90;;;1.90;;
11711;SDS011;5912;51.034;6.984;2022-09-09T07:18:49;3.78;;;1.92;;
11711;SDS011;5912;51.034;6.984;2022-09-09T07:21:16;9.32;;;2.20;;
11711;SDS011;5912;51.034;6.984;2022-09-09T07:23:41;3.75;;;1.42;;
11711;SDS011;5912;51.034;6.984;2022-09-09T07:26:11;7.00;;;2.72;;
11711;SDS011;5912;51.034;6.984;2022-09-09T07:28:38;4.55;;;2.03;;
11711;SDS011;5912;51.034;6.984;2022-09-09T07:31:05;3.35;;;1.48;;
11711;SDS011;5912;51.034;6.984;2022-09-09T07:33:32;2.63;;;1.25;;
11711;SDS011;5912;51.034;6.984;2022-09-09T07:36:06;2.90;;;1.00;;
11711;SDS011;5912;51.034;6.984;2022-09-09T07:38:37;3.20;;;1.38;;
11711;SDS011;5912;51.034;6.984;2022-09-09T07:41:08;3.67;;;1.55;;
11711;SDS011;5912;51.034;6.984;2022-09-09T07:43:37;4.22;;;1.20;;
11711;SDS011;5912;51.034;6.984;2022-09-09T07:46:04;5.03;;;1.45;;
11711;SDS011;5912;51.034;6.984;2022-09-09T07:48:31;4.65;;;1.50;;
11711;SDS011;5912;51.034;6.984;2022-09-09T07:51:07;2.15;;;1.00;;
11711;SDS011;5912;51.034;6.984;2022-09-09T07:53:36;3.45;;;1.27;;
11711;SDS011;5912;51.034;6.984;2022-09-09T07:56:07;2.83;;;1.00;;
11711;SDS011;5912;51.034;6.984;2022-09-09T07:58:37;4.35;;;1.40;;
11711;SDS011;5912;51.034;6.984;2022-09-09T08:01:07;4.47;;;1.08;;
11711;SDS011;5912;51.034;6.984;2022-09-09T08:03:38;3.17;;;0.70;;
11711;SDS011;5912;51.034;6.984;2022-09-09T08:06:04;4.55;;;1.13;;
11711;SDS011;5912;51.034;6.984;2022-09-09T08:08:32;2.75;;;1.05;;
11711;SDS011;5912;51.034;6.984;2022-09-09T08:13:35;3.90;;;1.17;;
11711;SDS011;5912;51.034;6.984;2022-09-09T08:16:05;3.15;;;1.10;;
11711;SDS011;5912;51.034;6.984;2022-09-09T08:18:41;3.47;;;1.15;;
11711;SDS011;5912;51.034;6.984;2022-09-09T08:21:07;4.43;;;1.25;;
11711;SDS011;5912;51.034;6.984;2022-09-09T08:23:38;3.50;;;0.80;;
11711;SDS011;5912;51.034;6.984;2022-09-09T08:26:07;2.17;;;1.10;;
11711;SDS011;5912;51.034;6.984;2022-09-09T08:31:58;3.17;;;1.10;;
11711;SDS011;5912;51.034;6.984;2022-09-09T08:34:24;4.10;;;0.82;;
11711;SDS011;5912;51.034;6.984;2022-09-09T08:36:51;3.67;;;1.08;;
11711;SDS011;5912;51.034;6.984;2022-09-09T08:39:18;5.22;;;0.80;;
11711;SDS011;5912;51.034;6.984;2022-09-09T08:50:13;3.92;;;1.30;;
11711;SDS011;5912;51.034;6.984;2022-09-09T08:53:10;6.00;;;1.20;;
11711;SDS011;5912;51.034;6.984;2022-09-09T08:58:27;2.72;;;0.68;;
11711;SDS011;5912;51.034;6.984;2022-09-09T09:11:59;3.28;;;0.90;;
11711;SDS011;5912;51.034;6.984;2022-09-09T09:14:30;2.60;;;0.60;;
11711;SDS011;5912;51.034;6.984;2022-09-09T09:19:32;1.02;;;0.70;;
11711;SDS011;5912;51.034;6.984;2022-09-09T09:22:02;1.17;;;0.60;;
11711;SDS011;5912;51.034;6.984;2022-09-09T09:30:12;2.47;;;0.70;;
11711;SDS011;5912;51.034;6.984;2022-09-09T09:32:40;2.03;;;1.00;;
11711;SDS011;5912;51.034;6.984;2022-09-09T09:35:15;2.65;;;0.85;;
11711;SDS011;5912;51.034;6.984;2022-09-09T09:41:03;2.03;;;0.90;;
11711;SDS011;5912;51.034;6.984;2022-09-09T09:43:30;1.42;;;0.93;;
11711;SDS011;5912;51.034;6.984;2022-09-09T09:45:57;1.70;;;0.80;;
11711;SDS011;5912;51.034;6.984;2022-09-09T09:48:23;1.98;;;0.65;;
11711;SDS011;5912;51.034;6.984;2022-09-09T09:51:00;1.67;;;0.77;;
11711;SDS011;5912;51.034;6.984;2022-09-09T09:56:02;5.78;;;0.85;;
11711;SDS011;5912;51.034;6.984;2022-09-09T10:01:21;2.70;;;0.93;;
11711;SDS011;5912;51.034;6.984;2022-09-09T10:03:52;4.95;;;1.30;;
11711;SDS011;5912;51.034;6.984;2022-09-09T10:06:35;1.23;;;0.57;;
11711;SDS011;5912;51.034;6.984;2022-09-09T10:09:03;1.35;;;0.60;;
11711;SDS011;5912;51.034;6.984;2022-09-09T10:17:05;3.20;;;0.82;;
11711;SDS011;5912;51.034;6.984;2022-09-09T10:22:52;2.75;;;0.70;;
11711;SDS011;5912;51.034;6.984;2022-09-09T10:28:28;4.00;;;0.93;;
11711;SDS011;5912;51.034;6.984;2022-09-09T10:36:39;2.25;;;0.65;;
11711;SDS011;5912;51.034;6.984;2022-09-09T10:39:27;2.20;;;0.60;;
11711;SDS011;5912;51.034;6.984;2022-09-09T10:42:03;2.53;;;0.70;;
11711;SDS011;5912;51.034;6.984;2022-09-09T10:52:32;2.88;;;1.25;;
11711;SDS011;5912;51.034;6.984;2022-09-09T10:55:17;1.95;;;0.82;;
11711;SDS011;5912;51.034;6.984;2022-09-09T11:00:15;0.93;;;0.60;;
11711;SDS011;5912;51.034;6.984;2022-09-09T11:02:44;2.50;;;0.75;;
11711;SDS011;5912;51.034;6.984;2022-09-09T11:05:19;3.17;;;1.30;;
11711;SDS011;5912;51.034;6.984;2022-09-09T11:07:55;3.08;;;1.15;;
11711;SDS011;5912;51.034;6.984;2022-09-09T11:10:29;2.95;;;0.80;;
11711;SDS011;5912;51.034;6.984;2022-09-09T11:18:55;3.03;;;0.68;;
11711;SDS011;5912;51.034;6.984;2022-09-09T11:21:28;2.47;;;1.15;;
11711;SDS011;5912;51.034;6.984;2022-09-09T11:24:06;2.28;;;0.70;;
11711;SDS011;5912;51.034;6.984;2022-09-09T11:26:41;2.75;;;0.75;;
11711;SDS011;5912;51.034;6.984;2022-09-09T11:29:32;2.13;;;0.65;;
11711;SDS011;5912;51.034;6.984;2022-09-09T11:37:44;1.70;;;0.95;;
11711;SDS011;5912;51.034;6.984;2022-09-09T11:40:24;3.75;;;0.63;;
11711;SDS011;5912;51.034;6.984;2022-09-09T11:43:00;3.30;;;0.63;;
11711;SDS011;5912;51.034;6.984;2022-09-09T11:45:33;2.17;;;0.75;;
11711;SDS011;5912;51.034;6.984;2022-09-09T11:48:01;2.50;;;0.60;;
11711;SDS011;5912;51.034;6.984;2022-09-09T11:50:30;4.47;;;0.75;;
11711;SDS011;5912;51.034;6.984;2022-09-09T11:53:19;0.77;;;0.45;;
11711;SDS011;5912;51.034;6.984;2022-09-09T11:55:47;2.22;;;0.80;;
11711;SDS011;5912;51.034;6.984;2022-09-09T11:58:24;2.70;;;0.80;;
11711;SDS011;5912;51.034;6.984;2022-09-09T12:00:49;1.02;;;0.60;;
11711;SDS011;5912;51.034;6.984;2022-09-09T12:06:13;2.20;;;0.95;;
11711;SDS011;5912;51.034;6.984;2022-09-09T12:08:43;1.77;;;0.73;;
11711;SDS011;5912;51.034;6.984;2022-09-09T12:11:11;2.65;;;0.82;;
11711;SDS011;5912;51.034;6.984;2022-09-09T12:13:37;1.55;;;0.75;;
11711;SDS011;5912;51.034;6.984;2022-09-09T12:16:03;1.90;;;0.63;;
11711;SDS011;5912;51.034;6.984;2022-09-09T12:18:37;2.17;;;0.70;;
11711;SDS011;5912;51.034;6.984;2022-09-09T12:26:25;3.65;;;0.88;;
11711;SDS011;5912;51.034;6.984;2022-09-09T12:29:02;1.17;;;0.68;;
11711;SDS011;5912;51.034;6.984;2022-09-09T12:39:58;2.42;;;0.70;;
11711;SDS011;5912;51.034;6.984;2022-09-09T12:42:26;4.50;;;1.00;;
11711;SDS011;5912;51.034;6.984;2022-09-09T12:44:53;1.50;;;0.68;;
11711;SDS011;5912;51.034;6.984;2022-09-09T12:47:21;3.00;;;1.02;;
11711;SDS011;5912;51.034;6.984;2022-09-09T12:49:50;1.83;;;0.75;;
11711;SDS011;5912;51.034;6.984;2022-09-09T12:54:51;2.90;;;1.02;;
11711;SDS011;5912;51.034;6.984;2022-09-09T12:57:18;1.98;;;0.50;;
11711;SDS011;5912;51.034;6.984;2022-09-09T12:59:47;1.60;;;0.60;;
11711;SDS011;5912;51.034;6.984;2022-09-09T13:02:23;2.13;;;0.68;;
11711;SDS011;5912;51.034;6.984;2022-09-09T13:04:51;0.75;;;0.60;;
11711;SDS011;5912;51.034;6.984;2022-09-09T13:07:17;0.98;;;0.57;;
11711;SDS011;5912;51.034;6.984;2022-09-09T13:09:45;2.50;;;0.68;;
11711;SDS011;5912;51.034;6.984;2022-09-09T13:12:23;1.75;;;0.73;;
11711;SDS011;5912;51.034;6.984;2022-09-09T13:14:51;2.65;;;0.60;;
11711;SDS011;5912;51.034;6.984;2022-09-09T13:17:22;1.02;;;0.43;;
11711;SDS011;5912;51.034;6.984;2022-09-09T13:19:50;2.10;;;0.50;;
11711;SDS011;5912;51.034;6.984;2022-09-09T13:22:30;1.48;;;0.70;;
11711;SDS011;5912;51.034;6.984;2022-09-09T13:25:06;0.85;;;0.40;;
11711;SDS011;5912;51.034;6.984;2022-09-09T13:28:45;1.40;;;0.82;;
11711;SDS011;5912;51.034;6.984;2022-09-09T13:30:55;1.98;;;0.68;;
11711;SDS011;5912;51.034;6.984;2022-09-09T13:33:35;2.58;;;0.88;;
11711;SDS011;5912;51.034;6.984;2022-09-09T13:36:03;1.05;;;0.43;;
11711;SDS011;5912;51.034;6.984;2022-09-09T13:38:38;4.65;;;0.70;;
11711;SDS011;5912;51.034;6.984;2022-09-09T13:41:24;1.95;;;0.40;;
11711;SDS011;5912;51.034;6.984;2022-09-09T13:43:55;1.92;;;0.63;;
11711;SDS011;5912;51.034;6.984;2022-09-09T13:46:37;1.65;;;0.70;;
11711;SDS011;5912;51.034;6.984;2022-09-09T13:51:36;0.65;;;0.60;;
11711;SDS011;5912;51.034;6.984;2022-09-09T13:54:10;2.03;;;0.70;;
11711;SDS011;5912;51.034;6.984;2022-09-09T13:56:38;0.70;;;0.50;;
11711;SDS011;5912;51.034;6.984;2022-09-09T13:59:06;2.00;;;0.85;;
11711;SDS011;5912;51.034;6.984;2022-09-09T14:01:35;1.40;;;0.57;;
11711;SDS011;5912;51.034;6.984;2022-09-09T14:04:02;2.03;;;0.68;;
11711;SDS011;5912;51.034;6.984;2022-09-09T14:06:28;1.50;;;0.68;;
11711;SDS011;5912;51.034;6.984;2022-09-09T14:08:54;2.05;;;0.73;;
11711;SDS011;5912;51.034;6.984;2022-09-09T14:11:19;1.30;;;0.60;;
11711;SDS011;5912;51.034;6.984;2022-09-09T14:13:46;1.83;;;0.50;;
11711;SDS011;5912;51.034;6.984;2022-09-09T14:16:12;0.80;;;0.60;;
11711;SDS011;5912;51.034;6.984;2022-09-09T14:18:37;1.73;;;0.90;;
11711;SDS011;5912;51.034;6.984;2022-09-09T14:21:03;1.40;;;0.65;;
11711;SDS011;5912;51.034;6.984;2022-09-09T14:23:29;1.80;;;0.93;;
11711;SDS011;5912;51.034;6.984;2022-09-09T14:25:55;1.75;;;0.90;;
11711;SDS011;5912;51.034;6.984;2022-09-09T14:28:20;3.30;;;1.23;;
11711;SDS011;5912;51.034;6.984;2022-09-09T14:30:46;4.18;;;1.40;;
11711;SDS011;5912;51.034;6.984;2022-09-09T14:33:12;2.60;;;1.13;;
11711;SDS011;5912;51.034;6.984;2022-09-09T14:35:39;3.50;;;1.00;;
11711;SDS011;5912;51.034;6.984;2022-09-09T14:38:06;2.42;;;1.13;;
11711;SDS011;5912;51.034;6.984;2022-09-09T14:40:33;2.53;;;0.98;;
11711;SDS011;5912;51.034;6.984;2022-09-09T14:43:00;1.00;;;0.70;;
11711;SDS011;5912;51.034;6.984;2022-09-09T14:45:25;1.30;;;0.80;;
11711;SDS011;5912;51.034;6.984;2022-09-09T14:47:51;2.25;;;0.70;;
11711;SDS011;5912;51.034;6.984;2022-09-09T14:50:17;2.22;;;0.70;;
11711;SDS011;5912;51.034;6.984;2022-09-09T14:52:43;2.40;;;0.73;;
11711;SDS011;5912;51.034;6.984;2022-09-09T14:55:09;1.17;;;0.52;;
11711;SDS011;5912;51.034;6.984;2022-09-09T14:57:34;2.03;;;0.85;;
11711;SDS011;5912;51.034;6.984;2022-09-09T15:00:01;1.52;;;0.70;;
11711;SDS011;5912;51.034;6.984;2022-09-09T15:02:30;1.20;;;0.80;;
11711;SDS011;5912;51.034;6.984;2022-09-09T15:04:56;1.30;;;0.80;;
11711;SDS011;5912;51.034;6.984;2022-09-09T15:07:22;1.50;;;0.73;;
11711;SDS011;5912;51.034;6.984;2022-09-09T15:09:48;1.85;;;1.17;;
11711;SDS011;5912;51.034;6.984;2022-09-09T15:12:14;1.40;;;0.80;;
11711;SDS011;5912;51.034;6.984;2022-09-09T15:14:39;1.40;;;0.80;;
11711;SDS011;5912;51.034;6.984;2022-09-09T15:17:05;1.45;;;0.82;;
11711;SDS011;5912;51.034;6.984;2022-09-09T15:19:30;1.92;;;1.00;;
11711;SDS011;5912;51.034;6.984;2022-09-09T15:21:57;1.35;;;0.73;;
11711;SDS011;5912;51.034;6.984;2022-09-09T15:24:24;2.13;;;0.88;;
11711;SDS011;5912;51.034;6.984;2022-09-09T15:26:51;0.68;;;0.50;;
11711;SDS011;5912;51.034;6.984;2022-09-09T15:29:17;2.05;;;0.88;;
11711;SDS011;5912;51.034;6.984;2022-09-09T15:31:42;3.35;;;0.68;;
11711;SDS011;5912;51.034;6.984;2022-09-09T15:34:07;1.63;;;0.65;;
11711;SDS011;5912;51.034;6.984;2022-09-09T15:36:34;2.80;;;0.90;;
11711;SDS011;5912;51.034;6.984;2022-09-09T15:39:01;2.28;;;0.80;;
11711;SDS011;5912;51.034;6.984;2022-09-09T15:41:28;1.02;;;0.75;;
11711;SDS011;5912;51.034;6.984;2022-09-09T15:43:55;1.08;;;0.80;;
11711;SDS011;5912;51.034;6.984;2022-09-09T15:46:26;2.35;;;1.17;;
11711;SDS011;5912;51.034;6.984;2022-09-09T15:48:56;3.30;;;1.40;;
11711;SDS011;5912;51.034;6.984;2022-09-09T15:51:28;2.55;;;1.00;;
11711;SDS011;5912;51.034;6.984;2022-09-09T15:53:55;4.32;;;1.40;;
11711;SDS011;5912;51.034;6.984;2022-09-09T15:56:21;2.15;;;1.30;;
11711;SDS011;5912;51.034;6.984;2022-09-09T15:58:48;1.48;;;1.10;;
11711;SDS011;5912;51.034;6.984;2022-09-09T16:01:13;2.28;;;1.33;;
11711;SDS011;5912;51.034;6.984;2022-09-09T16:03:41;2.30;;;1.50;;
11711;SDS011;5912;51.034;6.984;2022-09-09T16:06:08;1.73;;;1.00;;
11711;SDS011;5912;51.034;6.984;2022-09-09T16:08:34;2.10;;;1.08;;
11711;SDS011;5912;51.034;6.984;2022-09-09T16:11:05;0.70;;;0.70;;
11711;SDS011;5912;51.034;6.984;2022-09-09T16:13:40;1.85;;;0.40;;
11711;SDS011;5912;51.034;6.984;2022-09-09T16:16:06;0.85;;;0.40;;
11711;SDS011;5912;51.034;6.984;2022-09-09T16:18:37;0.50;;;0.30;;
11711;SDS011;5912;51.034;6.984;2022-09-09T16:21:08;1.00;;;0.55;;
11711;SDS011;5912;51.034;6.984;2022-09-09T16:23:38;2.03;;;0.80;;
11711;SDS011;5912;51.034;6.984;2022-09-09T16:26:04;0.95;;;0.40;;
11711;SDS011;5912;51.034;6.984;2022-09-09T16:28:30;0.70;;;0.32;;
11711;SDS011;5912;51.034;6.984;2022-09-09T16:30:56;1.33;;;0.47;;
11711;SDS011;5912;51.034;6.984;2022-09-09T16:33:22;1.25;;;0.65;;
11711;SDS011;5912;51.034;6.984;2022-09-09T16:35:48;2.17;;;0.77;;
11711;SDS011;5912;51.034;6.984;2022-09-09T16:38:14;2.45;;;0.70;;
11711;SDS011;5912;51.034;6.984;2022-09-09T16:40:39;1.95;;;0.85;;
11711;SDS011;5912;51.034;6.984;2022-09-09T16:43:06;1.48;;;0.80;;
11711;SDS011;5912;51.034;6.984;2022-09-09T16:45:32;0.85;;;0.70;;
11711;SDS011;5912;51.034;6.984;2022-09-09T16:47:57;1.60;;;0.85;;
11711;SDS011;5912;51.034;6.984;2022-09-09T16:50:23;1.50;;;0.77;;
11711;SDS011;5912;51.034;6.984;2022-09-09T16:52:48;1.20;;;0.90;;
11711;SDS011;5912;51.034;6.984;2022-09-09T16:55:14;3.38;;;1.40;;
11711;SDS011;5912;51.034;6.984;2022-09-09T16:57:39;2.03;;;1.05;;
11711;SDS011;5912;51.034;6.984;2022-09-09T17:00:06;1.23;;;0.77;;
11711;SDS011;5912;51.034;6.984;2022-09-09T17:02:33;2.65;;;1.20;;
11711;SDS011;5912;51.034;6.984;2022-09-09T17:04:58;3.30;;;1.27;;
11711;SDS011;5912;51.034;6.984;2022-09-09T17:07:24;5.20;;;1.30;;
11711;SDS011;5912;51.034;6.984;2022-09-09T17:09:49;1.73;;;1.02;;
11711;SDS011;5912;51.034;6.984;2022-09-09T17:12:15;2.95;;;1.23;;
11711;SDS011;5912;51.034;6.984;2022-09-09T17:14:41;5.20;;;1.67;;
11711;SDS011;5912;51.034;6.984;2022-09-09T17:17:06;2.53;;;1.48;;
11711;SDS011;5912;51.034;6.984;2022-09-09T17:19:32;2.17;;;1.10;;
11711;SDS011;5912;51.034;6.984;2022-09-09T17:21:58;2.58;;;1.10;;
11711;SDS011;5912;51.034;6.984;2022-09-09T17:24:24;1.60;;;0.80;;
11711;SDS011;5912;51.034;6.984;2022-09-09T17:26:51;2.40;;;0.90;;
11711;SDS011;5912;51.034;6.984;2022-09-09T17:29:17;1.70;;;0.98;;
11711;SDS011;5912;51.034;6.984;2022-09-09T17:31:42;1.75;;;0.98;;
11711;SDS011;5912;51.034;6.984;2022-09-09T17:34:08;2.03;;;1.23;;
11711;SDS011;5912;51.034;6.984;2022-09-09T17:36:33;3.55;;;1.50;;
11711;SDS011;5912;51.034;6.984;2022-09-09T17:38:59;4.72;;;1.45;;
11711;SDS011;5912;51.034;6.984;2022-09-09T17:41:27;3.60;;;1.77;;
11711;SDS011;5912;51.034;6.984;2022-09-09T17:43:54;1.92;;;1.35;;
11711;SDS011;5912;51.034;6.984;2022-09-09T17:46:21;3.60;;;1.90;;
11711;SDS011;5912;51.034;6.984;2022-09-09T17:48:49;7.38;;;2.40;;
11711;SDS011;5912;51.034;6.984;2022-09-09T17:51:20;5.32;;;2.50;;
11711;SDS011;5912;51.034;6.984;2022-09-09T17:53:49;6.47;;;3.13;;
11711;SDS011;5912;51.034;6.984;2022-09-09T17:56:17;6.25;;;3.10;;
11711;SDS011;5912;51.034;6.984;2022-09-09T17:58:45;5.78;;;2.60;;
11711;SDS011;5912;51.034;6.984;2022-09-09T18:01:12;4.78;;;2.80;;